createdAt,value
2023-04-08T00:02:54.315Z,7.90
2023-04-08T00:06:57.657Z,7.80
2023-04-08T00:11:00.687Z,7.90
2023-04-08T00:15:03.555Z,7.90
2023-04-08T00:19:07.805Z,7.90
2023-04-08T00:23:10.776Z,7.80
2023-04-08T00:27:13.644Z,7.80
2023-04-08T00:31:16.613Z,7.70
2023-04-08T00:35:21.029Z,7.70
2023-04-08T00:39:23.942Z,8.00
2023-04-08T00:43:27.065Z,8.10
2023-04-08T00:47:30.479Z,8.10
2023-04-08T00:51:36.391Z,7.90
2023-04-08T00:55:39.232Z,7.90
2023-04-08T00:59:42.318Z,7.60
2023-04-08T01:03:55.724Z,7.60
2023-04-08T01:08:02.981Z,7.70
2023-04-08T01:12:10.314Z,7.70
2023-04-08T01:16:17.721Z,7.80
2023-04-08T01:20:21.451Z,7.80
2023-04-08T01:24:30.620Z,7.70
2023-04-08T01:28:35.557Z,7.60
2023-04-08T01:32:39.624Z,7.60
2023-04-08T01:36:45.476Z,7.40
2023-04-08T01:40:50.597Z,7.60
2023-04-08T01:44:57.499Z,7.50
2023-04-08T01:49:01.244Z,7.20
2023-04-08T01:53:05.615Z,7.40
2023-04-08T01:57:13.779Z,7.40
2023-04-08T02:01:20.752Z,7.20
2023-04-08T02:05:25.910Z,7.00
2023-04-08T02:09:28.732Z,6.80
2023-04-08T02:13:33.923Z,6.60
2023-04-08T02:17:44.974Z,6.50
2023-04-08T02:21:50.959Z,6.70
2023-04-08T02:25:55.865Z,6.40
2023-04-08T02:30:04.804Z,6.30
2023-04-08T02:34:10.661Z,6.30
2023-04-08T02:38:13.650Z,6.30
2023-04-08T02:42:16.598Z,6.30
2023-04-08T02:46:19.613Z,6.10
2023-04-08T02:50:24.093Z,6.40
2023-04-08T02:54:26.949Z,6.40
2023-04-08T02:58:29.975Z,6.60
2023-04-08T03:02:33.018Z,6.70
2023-04-08T03:06:37.400Z,6.60
2023-04-08T03:10:40.163Z,6.60
2023-04-08T03:14:42.952Z,6.90
2023-04-08T03:18:45.735Z,6.60
2023-04-08T03:22:49.875Z,6.60
2023-04-08T03:26:52.679Z,6.70
2023-04-08T03:30:55.517Z,6.90
2023-04-08T03:34:58.406Z,6.80
2023-04-08T03:39:03.756Z,6.80
2023-04-08T03:43:08.722Z,7.00
2023-04-08T03:47:11.539Z,6.80
2023-04-08T03:51:14.353Z,6.90
2023-04-08T03:55:18.624Z,6.70
2023-04-08T03:59:21.379Z,6.70
2023-04-08T04:03:24.793Z,6.80
2023-04-08T04:07:27.736Z,6.80
2023-04-08T04:11:31.841Z,6.80
2023-04-08T04:15:34.671Z,6.80
2023-04-08T04:19:37.520Z,6.90
2023-04-08T04:23:40.410Z,6.90
2023-04-08T04:27:44.563Z,6.90
2023-04-08T04:31:47.326Z,7.00
2023-04-08T04:35:50.188Z,7.10
2023-04-08T04:39:53.004Z,7.10
2023-04-08T04:43:57.163Z,7.20
2023-04-08T04:48:00.033Z,7.10
2023-04-08T04:52:02.965Z,7.10
2023-04-08T04:56:05.967Z,7.20
2023-04-08T05:00:11.572Z,7.30
2023-04-08T05:04:14.366Z,7.30
2023-04-08T05:08:17.291Z,7.40
2023-04-08T05:12:20.658Z,7.40
2023-04-08T05:16:24.888Z,7.40
2023-04-08T05:20:27.749Z,7.50
2023-04-08T05:24:30.812Z,7.60
2023-04-08T05:28:33.644Z,7.70
2023-04-08T05:32:37.903Z,7.80
2023-04-08T05:36:40.905Z,8.00
2023-04-08T05:40:43.748Z,8.00
2023-04-08T05:44:46.701Z,8.10
2023-04-08T05:48:51.159Z,8.20
2023-04-08T05:52:54.165Z,8.20
2023-04-08T05:56:56.981Z,8.20
2023-04-08T06:00:59.863Z,8.30
2023-04-08T06:05:04.883Z,8.40
2023-04-08T06:09:07.803Z,8.40
2023-04-08T06:13:10.591Z,8.50
2023-04-08T06:17:13.467Z,8.50
2023-04-08T06:21:17.660Z,8.50
2023-04-08T06:25:20.511Z,8.50
2023-04-08T06:29:23.762Z,8.50
2023-04-08T06:33:26.604Z,8.50
2023-04-08T06:37:30.850Z,8.50
2023-04-08T06:41:33.697Z,8.50
2023-04-08T06:45:52.058Z,8.40
2023-04-08T06:49:55.030Z,8.50
2023-04-08T06:53:59.172Z,8.40
2023-04-08T06:58:02.513Z,8.30
2023-04-08T07:02:05.592Z,8.30
2023-04-08T07:06:08.506Z,8.30
2023-04-08T07:10:14.455Z,8.30
2023-04-08T07:14:17.285Z,8.40
2023-04-08T07:18:21.630Z,8.40
2023-04-08T07:22:24.516Z,8.50
2023-04-08T07:26:29.184Z,8.60
2023-04-08T07:30:32.106Z,8.70
2023-04-08T07:34:35.936Z,8.70
2023-04-08T07:38:38.908Z,8.80
2023-04-08T07:42:43.118Z,8.80
2023-04-08T07:46:49.410Z,8.80
2023-04-08T07:51:09.255Z,8.70
2023-04-08T07:55:13.687Z,8.80
2023-04-08T07:59:18.040Z,8.90
2023-04-08T08:03:20.967Z,9.10
2023-04-08T08:07:23.883Z,9.20
2023-04-08T08:11:28.023Z,9.00
2023-04-08T08:15:32.344Z,9.00
2023-04-08T08:19:35.381Z,9.00
2023-04-08T08:23:38.598Z,9.00
2023-04-08T08:27:42.419Z,9.00
2023-04-08T08:31:48.518Z,9.10
2023-04-08T08:35:51.802Z,9.20
2023-04-08T08:39:54.765Z,9.30
2023-04-08T08:43:58.235Z,9.30
2023-04-08T08:48:02.729Z,9.20
2023-04-08T08:52:06.879Z,9.10
2023-04-08T08:56:17.352Z,9.00
2023-04-08T09:00:34.446Z,8.90
2023-04-08T09:04:39.399Z,8.90
2023-04-08T09:08:42.803Z,9.00
2023-04-08T09:12:55.770Z,8.90
2023-04-08T09:16:58.616Z,8.70
2023-04-08T09:21:03.474Z,8.80
2023-04-08T09:25:24.107Z,8.70
2023-04-08T09:29:31.163Z,8.60
2023-04-08T09:33:36.254Z,8.50
2023-04-08T09:37:40.581Z,8.50
2023-04-08T09:41:44.640Z,8.50
2023-04-08T09:45:48.579Z,8.50
2023-04-08T09:49:56.656Z,8.60
2023-04-08T09:54:04.096Z,8.70
2023-04-08T09:58:12.503Z,8.60
2023-04-08T10:02:21.356Z,8.70
2023-04-08T10:06:29.453Z,8.80
2023-04-08T10:10:34.868Z,8.80
2023-04-08T10:14:37.791Z,8.90
2023-04-08T10:18:40.741Z,9.10
2023-04-08T10:22:50.389Z,9.30
2023-04-08T10:26:54.537Z,9.70
2023-04-08T10:30:58.613Z,9.90
2023-04-08T10:35:01.596Z,10.30
2023-04-08T10:39:04.545Z,10.50
2023-04-08T10:43:08.806Z,10.70
2023-04-08T10:47:12.757Z,10.90
2023-04-08T10:51:15.798Z,11.10
2023-04-08T10:55:24.002Z,11.20
2023-04-08T10:59:33.257Z,11.00
2023-04-08T11:03:37.705Z,10.60
2023-04-08T11:07:42.371Z,10.20
2023-04-08T11:11:46.303Z,10.00
2023-04-08T11:15:51.344Z,9.90
2023-04-08T11:19:54.379Z,9.80
2023-04-08T11:23:57.304Z,9.80
2023-04-08T11:28:01.227Z,9.80
2023-04-08T11:32:05.493Z,9.70
2023-04-08T11:36:08.483Z,9.60
2023-04-08T11:40:13.234Z,9.70
2023-04-08T11:44:16.117Z,9.70
2023-04-08T11:48:20.287Z,9.60
2023-04-08T11:52:23.234Z,9.50
2023-04-08T11:56:27.133Z,9.40
2023-04-08T12:00:30.272Z,9.40
2023-04-08T12:04:34.791Z,9.40
2023-04-08T12:08:38.908Z,9.30
2023-04-08T12:12:42.115Z,9.30
2023-04-08T12:16:44.960Z,9.30
2023-04-08T12:20:49.145Z,9.40
2023-04-08T12:24:52.033Z,9.50
2023-04-08T12:28:54.890Z,9.50
2023-04-08T12:32:57.788Z,9.40
2023-04-08T12:37:02.451Z,9.30
2023-04-08T12:41:05.488Z,9.20
2023-04-08T12:45:09.386Z,9.20
2023-04-08T12:49:12.455Z,9.20
2023-04-08T12:53:16.817Z,9.20
2023-04-08T12:57:19.640Z,9.00
2023-04-08T13:01:22.567Z,8.90
2023-04-08T13:05:33.162Z,8.90
2023-04-08T13:09:46.839Z,8.90
2023-04-08T13:13:50.423Z,8.90
2023-04-08T13:17:53.278Z,8.80
2023-04-08T13:21:56.168Z,8.90
2023-04-08T13:26:00.480Z,8.80
2023-04-08T13:30:03.371Z,8.80
2023-04-08T13:34:06.378Z,8.90
2023-04-08T13:38:09.276Z,8.90
2023-04-08T13:42:13.520Z,8.90
2023-04-08T13:46:16.458Z,8.90
2023-04-08T13:50:19.378Z,8.90
2023-04-08T13:54:22.690Z,8.90
2023-04-08T13:58:27.146Z,8.90
2023-04-08T14:02:30.112Z,8.90
2023-04-08T14:06:33.658Z,8.80
2023-04-08T14:10:36.572Z,8.80
2023-04-08T14:14:40.751Z,8.60
2023-04-08T14:18:43.591Z,8.50
2023-04-08T14:22:46.400Z,8.60
2023-04-08T14:26:49.217Z,8.50
2023-04-08T14:30:54.571Z,8.40
2023-04-08T14:34:57.694Z,8.30
2023-04-08T14:39:00.707Z,8.40
2023-04-08T14:43:03.574Z,8.50
2023-04-08T14:47:07.794Z,8.50
2023-04-08T14:51:10.809Z,8.50
2023-04-08T14:55:13.688Z,8.60
2023-04-08T14:59:16.507Z,8.60
2023-04-08T15:03:20.850Z,8.60
2023-04-08T15:07:33.346Z,8.70
2023-04-08T15:11:36.243Z,8.80
2023-04-08T15:15:39.179Z,8.90
2023-04-08T15:19:43.470Z,8.80
2023-04-08T15:23:46.590Z,8.80
2023-04-08T15:27:49.808Z,8.90
2023-04-08T15:31:52.803Z,8.80
2023-04-08T15:35:57.454Z,8.80
2023-04-08T15:40:00.497Z,8.80
2023-04-08T15:44:03.389Z,8.70
2023-04-08T15:48:06.663Z,8.80
2023-04-08T15:52:10.892Z,8.80
2023-04-08T15:56:14.851Z,8.70
2023-04-08T16:00:18.082Z,8.80
2023-04-08T16:04:21.258Z,8.80
2023-04-08T16:08:25.608Z,8.80
2023-04-08T16:12:28.848Z,8.70
2023-04-08T16:16:31.970Z,8.60
2023-04-08T16:20:37.944Z,8.50
2023-04-08T16:24:42.221Z,8.50
2023-04-08T16:28:45.120Z,8.50
2023-04-08T16:32:48.643Z,8.50
2023-04-08T16:36:51.761Z,8.40
2023-04-08T16:40:58.399Z,8.40
2023-04-08T16:45:01.485Z,8.50
2023-04-08T16:49:04.376Z,8.50
2023-04-08T16:53:07.267Z,8.40
2023-04-08T16:57:11.493Z,8.40
2023-04-08T17:01:15.021Z,8.50
2023-04-08T17:05:17.952Z,8.50
2023-04-08T17:09:21.210Z,8.40
2023-04-08T17:13:25.531Z,8.40
2023-04-08T17:17:28.339Z,8.40
2023-04-08T17:21:31.131Z,8.30
2023-04-08T17:25:35.394Z,8.30
2023-04-08T17:29:39.702Z,8.30
2023-04-08T17:33:42.748Z,8.30
2023-04-08T17:37:45.559Z,8.30
2023-04-08T17:41:48.347Z,8.30
2023-04-08T17:45:53.160Z,8.30
2023-04-08T17:49:56.385Z,8.30
2023-04-08T17:53:59.290Z,8.30
2023-04-08T17:58:02.228Z,8.30
2023-04-08T18:02:06.468Z,8.30
2023-04-08T18:06:09.469Z,8.20
2023-04-08T18:10:12.677Z,8.20
2023-04-08T18:14:16.517Z,8.20
2023-04-08T18:18:21.960Z,8.20
2023-04-08T18:22:24.701Z,8.20
2023-04-08T18:26:28.257Z,8.30
2023-04-08T18:30:31.114Z,8.20
2023-04-08T18:34:35.343Z,8.30
2023-04-08T18:38:39.978Z,8.20
2023-04-08T18:42:42.831Z,8.20
2023-04-08T18:46:46.395Z,8.20
2023-04-08T18:50:50.563Z,8.20
2023-04-08T18:54:53.290Z,8.20
2023-04-08T18:58:56.060Z,8.20
2023-04-08T19:02:59.298Z,8.20
2023-04-08T19:07:03.532Z,8.10
2023-04-08T19:11:06.599Z,8.20
2023-04-08T19:15:09.918Z,8.20
2023-04-08T19:19:12.621Z,8.20
2023-04-08T19:23:18.775Z,8.20
2023-04-08T19:27:21.528Z,8.20
2023-04-08T19:31:24.499Z,8.20
2023-04-08T19:35:27.324Z,8.20
2023-04-08T19:39:31.479Z,8.20
2023-04-08T19:43:34.279Z,8.20
2023-04-08T19:47:37.141Z,8.20
2023-04-08T19:51:39.976Z,8.20
2023-04-08T19:55:44.506Z,8.20
2023-04-08T19:59:47.924Z,8.20
2023-04-08T20:03:52.122Z,8.20
2023-04-08T20:07:55.222Z,8.10
2023-04-08T20:12:04.767Z,8.10
2023-04-08T20:16:08.152Z,8.10
2023-04-08T20:20:11.721Z,8.10
2023-04-08T20:24:14.520Z,8.00
2023-04-08T20:28:18.943Z,8.00
2023-04-08T20:32:21.772Z,8.00
2023-04-08T20:36:25.199Z,8.00
2023-04-08T20:40:28.067Z,8.00
2023-04-08T20:44:32.267Z,7.90
2023-04-08T20:48:36.049Z,7.90
2023-04-08T20:52:39.456Z,7.90
2023-04-08T20:56:42.610Z,7.90
2023-04-08T21:00:48.464Z,7.90
2023-04-08T21:04:51.350Z,7.90
2023-04-08T21:08:54.610Z,7.90
2023-04-08T21:12:57.450Z,7.90
2023-04-08T21:17:01.874Z,7.90
2023-04-08T21:21:04.790Z,7.90
2023-04-08T21:25:08.328Z,7.90
2023-04-08T21:29:11.452Z,7.80
2023-04-08T21:33:15.762Z,7.80
2023-04-08T21:37:18.621Z,7.80
2023-04-08T21:41:21.416Z,7.80
2023-04-08T21:45:24.779Z,7.80
2023-04-08T21:49:29.853Z,7.80
2023-04-08T21:53:32.631Z,7.70
2023-04-08T21:57:35.512Z,7.80
2023-04-08T22:01:38.427Z,7.80
2023-04-08T22:05:42.725Z,7.80
2023-04-08T22:09:46.208Z,7.70
2023-04-08T22:13:49.057Z,7.70
2023-04-08T22:17:53.086Z,7.70
2023-04-08T22:21:57.418Z,7.70
2023-04-08T22:26:00.317Z,7.70
2023-04-08T22:30:03.211Z,7.70
2023-04-08T22:34:06.454Z,7.70
2023-04-08T22:38:10.612Z,7.70
2023-04-08T22:42:13.432Z,7.70
2023-04-08T22:46:18.115Z,7.70
2023-04-08T22:50:21.799Z,7.60
2023-04-08T22:54:26.112Z,7.60
2023-04-08T22:58:28.931Z,7.70
2023-04-08T23:02:31.873Z,7.60
2023-04-08T23:06:34.775Z,7.60
2023-04-08T23:10:38.988Z,7.60
2023-04-08T23:14:42.013Z,7.60
2023-04-08T23:18:44.770Z,7.60
2023-04-08T23:22:47.625Z,7.50
2023-04-08T23:26:51.836Z,7.50
2023-04-08T23:30:54.813Z,7.50
2023-04-08T23:34:57.625Z,7.40
2023-04-08T23:39:00.590Z,7.40
2023-04-08T23:43:04.808Z,7.40
2023-04-08T23:47:07.612Z,7.40
2023-04-08T23:51:11.695Z,7.40
2023-04-08T23:55:14.664Z,7.30
2023-04-08T23:59:19.006Z,7.30
